Time;durP1;ratioP1;P1;durP2;ratioP2;P2;SDS_P1;SDS_P2;PMS_P1;PMS_P2;Temp;Humidity;BMP_temperature;BMP_pressure;BME280_temperature;BME280_humidity;BME280_pressure;Samples;Min_cycle;Max_cycle;Signal;HPM_P1;HPM_P2
2021/12/10 00:02:15;;;;;;;8.32;3.08;;;5.30;99.90;;;5.14;85.13;99408.09;5271040;28;20076;-67
2021/12/10 00:04:48;;;;;;;;;;;5.30;99.90;;;5.17;85.35;99406.53;5270811;28;20052;-68
2021/12/10 00:07:24;;;;;;;6.13;2.80;;;5.40;99.90;;;5.16;84.86;99403.91;5270747;28;19930;-67
2021/12/10 00:10:02;;;;;;;8.20;3.08;;;5.40;99.90;;;5.12;84.94;99396.84;5270373;28;20482;-68
2021/12/10 00:12:49;;;;;;;6.00;2.92;;;5.40;99.90;;;5.09;85.15;99382.16;5270421;28;20054;-67
2021/12/10 00:15:26;;;;;;;9.05;3.17;;;5.30;99.90;;;5.11;85.28;99387.34;5270352;28;20055;-68
2021/12/10 00:18:01;;;;;;;5.68;2.97;;;5.30;99.90;;;5.17;85.19;99385.84;5270600;28;20556;-67
2021/12/10 00:20:35;;;;;;;;;;;5.30;99.90;;;5.11;84.97;99370.16;5271949;28;20044;-67
2021/12/10 00:23:14;;;;;;;6.35;2.70;;;5.30;99.90;;;5.05;85.68;99369.94;5268549;28;19920;-67
2021/12/10 00:25:53;;;;;;;9.82;3.78;;;5.30;99.90;;;5.06;85.35;99356.19;5271051;28;20047;-67
2021/12/10 00:28:32;;;;;;;6.18;2.97;;;5.30;99.90;;;5.00;85.63;99356.00;5270614;28;20059;-68
2021/12/10 00:31:18;;;;;;;6.18;2.67;;;5.30;99.90;;;4.97;85.66;99350.72;5269861;28;20048;-67
2021/12/10 00:33:57;;;;;;;5.85;2.95;;;5.20;99.90;;;4.94;85.66;99347.16;5248191;28;20131;-68
2021/12/10 00:36:33;;;;;;;7.85;2.75;;;5.20;99.90;;;4.89;85.97;99347.91;5228044;28;20051;-68
2021/12/10 00:39:07;;;;;;;8.18;3.17;;;5.10;99.90;;;4.88;85.88;99342.66;5228109;28;20041;-69
2021/12/10 00:41:41;;;;;;;8.25;3.58;;;5.10;99.90;;;4.77;85.92;99331.09;5248571;28;20147;-67
2021/12/10 00:44:13;;;;;;;9.45;3.05;;;5.00;99.90;;;4.70;86.34;99334.31;5248132;28;20045;-67
2021/12/10 00:46:45;;;;;;;8.13;3.15;;;5.00;99.90;;;4.66;86.69;99327.25;5248472;28;20408;-67
2021/12/10 00:49:18;;;;;;;6.63;3.10;;;5.00;99.90;;;4.60;86.96;99328.81;5246571;28;20047;-67
2021/12/10 00:51:51;;;;;;;6.97;2.70;;;4.90;99.90;;;4.56;87.36;99326.06;5230586;28;20481;-68
2021/12/10 00:54:23;;;;;;;7.88;3.72;;;4.90;99.90;;;4.56;87.37;99319.22;5244638;28;20051;-68
2021/12/10 00:56:57;;;;;;;5.53;2.70;;;4.80;99.90;;;4.57;87.63;99308.06;5248503;28;20406;-67
2021/12/10 00:59:29;;;;;;;7.30;3.10;;;4.80;99.90;;;4.57;88.11;99310.66;5232939;28;20045;-67
2021/12/10 01:02:01;;;;;;;7.38;2.67;;;4.80;99.90;;;4.56;88.02;99306.31;5227352;28;20055;-68
2021/12/10 01:04:40;;;;;;;7.80;3.20;;;4.80;99.90;;;4.58;87.89;99304.66;5242107;28;20049;-67
2021/12/10 01:07:17;;;;;;;5.25;2.55;;;4.90;99.90;;;4.66;87.66;99298.88;5245367;28;20048;-68
2021/12/10 01:09:54;;;;;;;6.75;2.88;;;4.90;99.90;;;4.74;87.38;99305.16;5248131;28;20114;-68
2021/12/10 01:12:37;;;;;;;7.20;2.70;;;4.90;99.90;;;4.71;87.49;99294.75;5237222;28;20485;-68
2021/12/10 01:15:36;;;;;;;7.28;2.85;;;4.90;99.90;;;4.72;87.38;99289.63;5235548;28;20056;-67
2021/12/10 01:23:59;;;;;;;7.80;2.63;;;5.00;99.90;;;4.76;86.73;99272.53;5247727;28;20097;-67
2021/12/10 01:26:52;;;;;;;6.68;2.78;;;5.00;99.90;;;4.76;86.68;99272.53;5248016;28;20060;-67
2021/12/10 01:29:31;;;;;;;5.38;2.72;;;5.00;99.90;;;4.77;86.54;99262.28;5247911;28;20053;-68
2021/12/10 01:32:08;;;;;;;6.65;2.97;;;5.00;99.90;;;4.71;86.57;99254.34;5248416;28;20485;-68
2021/12/10 01:34:41;;;;;;;7.80;3.42;;;5.00;99.90;;;4.77;86.56;99248.50;5247712;28;20473;-68
2021/12/10 01:37:13;;;;;;;5.18;2.67;;;5.00;99.90;;;4.75;86.54;99244.97;5248052;28;20052;-68
2021/12/10 01:39:46;;;;;;;10.70;2.95;;;5.00;99.90;;;4.75;86.62;99253.59;5247719;28;20059;-68
2021/12/10 01:42:34;;;;;;;6.30;2.22;;;5.00;99.90;;;4.83;86.27;99238.38;5248168;28;20075;-68
2021/12/10 01:45:18;;;;;;;6.57;2.08;;;5.00;99.90;;;4.83;86.19;99228.06;5247809;28;20052;-67
2021/12/10 01:48:02;;;;;;;5.13;2.70;;;5.00;99.90;;;4.87;85.77;99215.28;5247775;28;20443;-67
2021/12/10 01:50:36;;;;;;;4.95;2.10;;;5.10;99.90;;;4.85;85.79;99210.91;5247813;28;20052;-68
2021/12/10 01:53:13;;;;;;;4.72;1.95;;;5.10;99.90;;;4.91;84.58;99205.94;5247796;28;20054;-68
2021/12/10 01:55:51;;;;;;;5.90;1.98;;;5.10;99.90;;;4.91;83.92;99205.94;5247296;28;20447;-67
2021/12/10 01:58:27;;;;;;;11.80;2.30;;;5.10;99.90;;;4.93;83.82;99199.09;5247793;28;20045;-68
2021/12/10 02:01:04;;;;;;;;;;;5.10;99.90;;;4.96;83.25;99201.78;5247935;28;20049;-67
2021/12/10 02:03:37;;;;;;;5.47;1.60;;;5.10;99.90;;;4.99;82.56;99199.28;5247162;28;19920;-68
2021/12/10 02:06:10;;;;;;;6.38;1.83;;;5.20;99.90;;;4.97;82.99;99200.09;5246909;28;20041;-67
2021/12/10 02:08:42;;;;;;;8.27;2.13;;;5.20;99.90;;;5.04;83.01;99197.75;5247108;28;20399;-67
2021/12/10 02:11:15;;;;;;;3.35;1.50;;;5.20;99.90;;;5.04;82.66;99195.16;5247702;28;20048;-67
2021/12/10 02:13:49;;;;;;;9.27;1.95;;;5.30;99.90;;;5.04;82.88;99186.53;5246789;28;20110;-67
2021/12/10 02:16:23;;;;;;;5.93;1.88;;;5.30;99.90;;;5.05;83.12;99184.00;5247317;28;20063;-68
2021/12/10 02:18:55;;;;;;;3.05;1.63;;;5.30;99.90;;;5.07;83.03;99181.44;5246208;28;20051;-67
2021/12/10 02:21:30;;;;;;;3.95;1.58;;;5.30;99.90;;;5.11;82.70;99158.34;5247116;28;20114;-68
2021/12/10 02:24:04;;;;;;;6.35;1.90;;;5.30;99.90;;;5.05;82.73;99153.00;5246275;28;20132;-68
2021/12/10 02:26:42;;;;;;;3.88;1.35;;;5.30;99.90;;;4.97;82.44;99154.47;5247403;28;20059;-67
2021/12/10 02:29:17;;;;;;;6.82;1.50;;;5.30;99.90;;;4.90;82.96;99157.72;5247350;28;20525;-67
2021/12/10 02:31:50;;;;;;;4.70;1.33;;;5.20;99.90;;;4.84;82.31;99144.59;5246783;28;20052;-67
2021/12/10 02:34:23;;;;;;;3.85;1.70;;;5.20;99.90;;;4.83;82.69;99132.53;5246400;28;20493;-68
2021/12/10 02:36:57;;;;;;;5.00;1.40;;;5.20;99.90;;;4.81;81.79;99116.09;5246484;28;20135;-68
2021/12/10 02:39:29;;;;;;;4.43;1.30;;;5.10;99.90;;;4.81;81.87;99105.78;5246532;28;20055;-68
2021/12/10 02:42:02;;;;;;;5.13;1.55;;;5.10;99.90;;;4.76;81.77;99094.41;5246748;28;20408;-67
2021/12/10 02:44:34;;;;;;;5.70;1.75;;;5.10;99.90;;;4.71;81.83;99099.47;5246329;28;20499;-68
2021/12/10 02:47:06;;;;;;;2.85;1.58;;;5.10;99.90;;;4.65;82.35;99093.22;5246137;28;20049;-67
2021/12/10 02:49:39;;;;;;;3.63;1.42;;;5.00;99.90;;;4.57;82.81;99093.88;5247179;28;20051;-68
2021/12/10 02:52:14;;;;;;;5.97;1.52;;;5.00;99.90;;;4.49;82.74;99092.72;5246651;28;20053;-66
2021/12/10 02:54:46;;;;;;;4.50;1.75;;;4.90;99.90;;;4.45;83.11;99085.75;5246326;28;20053;-68
2021/12/10 02:57:19;;;;;;;5.47;1.42;;;4.80;99.90;;;4.40;82.79;99079.56;5246499;28;20058;-67
2021/12/10 02:59:51;;;;;;;5.90;1.45;;;4.80;99.90;;;4.35;83.22;99069.06;5246619;28;20079;-68
2021/12/10 03:02:26;;;;;;;4.07;1.23;;;4.70;99.90;;;4.34;83.26;99063.88;5246340;28;20054;-67
2021/12/10 03:04:58;;;;;;;3.85;1.35;;;4.70;99.90;;;4.31;83.47;99056.06;5245813;28;20056;-68
2021/12/10 03:07:32;;;;;;;3.25;1.33;;;4.70;99.90;;;4.33;83.41;99059.56;5246687;28;20048;-68
2021/12/10 03:10:08;;;;;;;5.93;1.38;;;4.70;99.90;;;4.30;83.17;99054.28;5246402;28;20526;-68
2021/12/10 03:12:41;;;;;;;4.38;1.38;;;4.70;99.90;;;4.26;82.65;99044.72;5246427;28;20044;-67
2021/12/10 03:15:16;;;;;;;5.20;1.23;;;4.70;99.90;;;4.33;82.45;99041.50;5245877;28;20048;-68
2021/12/10 03:17:49;;;;;;;4.18;1.60;;;4.70;99.90;;;4.31;82.35;99043.16;5246673;28;20047;-67
2021/12/10 03:20:28;;;;;;;2.45;1.42;;;4.70;99.90;;;4.26;82.28;99039.56;5246017;28;20052;-68
2021/12/10 03:23:04;;;;;;;3.42;1.45;;;4.60;99.90;;;4.28;82.48;99027.56;5246505;28;20401;-68
2021/12/10 03:25:36;;;;;;;8.95;1.42;;;4.70;99.90;;;4.26;82.28;99029.22;5246057;28;20404;-68
2021/12/10 03:28:09;;;;;;;6.90;1.08;;;4.60;99.90;;;4.28;82.46;99014.69;5246861;28;20465;-68
2021/12/10 03:30:47;;;;;;;3.15;0.90;;;4.60;99.90;;;4.28;82.51;99015.56;5247270;28;20048;-68
2021/12/10 03:33:19;;;;;;;2.58;1.35;;;4.60;99.90;;;4.26;82.17;99011.19;5250405;28;20045;-68
2021/12/10 03:35:52;;;;;;;5.00;1.30;;;4.70;99.90;;;4.26;82.43;99012.06;5249865;28;20417;-67
2021/12/10 03:38:26;;;;;;;6.25;1.10;;;4.60;99.90;;;4.23;82.71;98998.16;5250556;28;20055;-68
2021/12/10 03:40:59;;;;;;;4.30;1.38;;;4.60;99.90;;;4.23;82.45;98995.59;5250684;28;20418;-67
2021/12/10 03:43:32;;;;;;;3.75;1.17;;;4.60;99.90;;;4.16;82.57;98988.50;5250071;28;20056;-68
2021/12/10 03:46:06;;;;;;;3.67;1.40;;;4.60;99.90;;;4.20;83.06;98982.63;5250359;28;20488;-67
2021/12/10 03:48:43;;;;;;;5.28;1.20;;;4.50;99.90;;;4.17;82.89;98978.22;5249999;28;20051;-68
2021/12/10 03:51:24;;;;;;;3.42;1.02;;;4.50;99.90;;;4.11;83.58;98980.63;5250292;28;20052;-67
2021/12/10 03:53:59;;;;;;;4.03;1.33;;;4.50;99.90;;;4.10;84.06;98978.88;5249652;28;20055;-67
2021/12/10 03:56:33;;;;;;;2.20;1.02;;;4.50;99.90;;;4.13;83.75;98967.78;5250107;28;20053;-67
2021/12/10 03:59:09;;;;;;;9.13;1.38;;;4.50;99.90;;;4.16;83.74;98967.88;5249785;28;20044;-67
2021/12/10 04:01:47;;;;;;;7.35;1.60;;;4.50;99.90;;;4.19;83.93;98967.97;5249954;28;20436;-67
2021/12/10 04:04:23;;;;;;;7.05;1.10;;;4.60;99.90;;;4.19;84.12;98970.56;5249485;28;20075;-68
2021/12/10 04:06:57;;;;;;;1.33;0.77;;;4.60;99.90;;;4.24;83.58;98962.13;5249904;28;20420;-67
2021/12/10 04:09:30;;;;;;;5.03;1.55;;;4.60;99.90;;;4.31;83.90;98958.03;5249638;28;20048;-68
2021/12/10 04:12:07;;;;;;;17.83;3.38;;;4.60;99.90;;;4.34;83.90;98953.84;5249607;28;20063;-67
2021/12/10 04:14:41;;;;;;;5.78;3.03;;;4.60;99.90;;;4.39;83.44;98941.09;5248855;28;20060;-70
2021/12/10 04:17:13;;;;;;;4.40;1.67;;;4.70;99.90;;;4.44;83.02;98939.53;5249758;28;20135;-68
2021/12/10 04:19:46;;;;;;;3.72;1.40;;;4.70;99.90;;;4.41;83.02;98934.25;5249225;28;20128;-68
2021/12/10 04:22:21;;;;;;;5.47;2.45;;;4.70;99.90;;;4.38;83.46;98929.03;5249517;28;20049;-68
2021/12/10 04:24:54;;;;;;;4.05;1.33;;;4.70;99.90;;;4.38;83.22;98933.31;5249407;28;20048;-67
2021/12/10 04:27:27;;;;;;;7.75;1.85;;;4.70;99.90;;;4.35;82.88;98923.75;5249326;28;20049;-68
2021/12/10 04:30:00;;;;;;;3.03;1.27;;;4.70;99.90;;;4.36;83.35;98915.19;5249125;28;20045;-66
2021/12/10 04:32:32;;;;;;;4.00;1.83;;;4.70;99.90;;;4.34;83.05;98911.69;5249499;28;20059;-68
2021/12/10 04:35:05;;;;;;;5.65;1.90;;;4.80;99.90;;;4.34;82.80;98906.53;5248759;28;20048;-67
2021/12/10 04:37:38;;;;;;;5.55;2.10;;;4.70;99.90;;;4.43;82.41;98905.91;5249149;28;20048;-68
2021/12/10 04:40:17;;;;;;;11.07;1.85;;;4.70;99.90;;;4.39;82.44;98904.09;5249215;28;20044;-67
2021/12/10 04:42:50;;;;;;;8.63;2.65;;;4.70;99.90;;;4.32;82.54;98903.03;5249442;28;20052;-67
2021/12/10 04:45:22;;;;;;;5.93;1.90;;;4.70;99.90;;;4.35;82.11;98900.53;5248785;28;20056;-67
2021/12/10 04:47:54;;;;;;;2.70;1.48;;;4.70;99.90;;;4.38;81.60;98892.91;5248821;28;20051;-68
2021/12/10 04:50:29;;;;;;;6.55;1.75;;;4.70;99.90;;;4.29;82.10;98887.47;5249099;28;20051;-67
2021/12/10 04:53:02;;;;;;;8.73;2.40;;;4.60;99.90;;;4.23;82.23;98866.66;5249263;28;20177;-68
2021/12/10 04:55:37;;;;;;;5.40;1.60;;;4.60;99.90;;;4.15;82.35;98878.44;5248651;28;20127;-67
2021/12/10 04:58:11;;;;;;;6.38;2.20;;;4.60;99.90;;;4.09;82.68;98872.28;5249023;28;20056;-67
2021/12/10 05:00:51;;;;;;;9.57;3.65;;;4.60;99.90;;;4.09;82.89;98859.38;5248870;28;20048;-68
2021/12/10 05:03:23;;;;;;;5.10;2.05;;;4.50;99.90;;;4.11;82.49;98866.28;5249331;28;20498;-68
2021/12/10 05:06:01;;;;;;;4.80;1.95;;;4.50;99.90;;;4.06;82.50;98869.63;5248139;28;20048;-67
2021/12/10 05:08:35;;;;;;;6.20;2.45;;;4.50;99.90;;;4.00;82.92;98861.69;5248674;28;20048;-67
2021/12/10 05:11:10;;;;;;;6.20;2.40;;;4.40;99.90;;;3.96;83.21;98841.81;5248696;28;20070;-68
2021/12/10 05:13:46;;;;;;;8.10;3.75;;;4.40;99.90;;;3.92;83.38;98849.41;5248923;28;20056;-68
2021/12/10 05:16:24;;;;;;;16.10;3.55;;;4.40;99.90;;;3.90;83.51;98836.47;5248470;28;20048;-67
2021/12/10 05:19:01;;;;;;;4.72;2.08;;;4.30;99.90;;;3.92;83.73;98833.94;5248266;28;20054;-68
2021/12/10 05:21:35;;;;;;;5.05;2.10;;;4.30;99.90;;;3.89;83.54;98821.84;5259986;22;20414;-84
2021/12/10 05:24:10;;;;;;;4.80;2.10;;;4.30;99.90;;;3.83;83.70;98816.50;5225440;28;20103;-83
2021/12/10 05:26:45;;;;;;;4.82;1.98;;;4.30;99.90;;;3.83;83.68;98824.22;5233250;28;20057;-83
2021/12/10 05:29:17;;;;;;;6.45;1.60;;;4.30;99.90;;;3.81;84.04;98820.72;5234286;28;20059;-83
2021/12/10 05:31:50;;;;;;;3.53;1.45;;;4.30;99.90;;;3.76;84.21;98811.97;5233829;28;20116;-84
2021/12/10 05:34:22;;;;;;;4.50;2.03;;;4.20;99.90;;;3.75;84.34;98813.69;5233729;28;20056;-81
2021/12/10 05:36:56;;;;;;;5.45;2.10;;;4.20;99.90;;;3.74;84.54;98813.66;5234125;28;20051;-83
2021/12/10 05:39:28;;;;;;;7.72;2.67;;;4.20;99.90;;;3.64;84.52;98796.16;5233623;28;20088;-82
2021/12/10 05:42:04;;;;;;;5.97;1.80;;;4.20;99.90;;;3.69;84.38;98794.59;5233723;28;20080;-83
2021/12/10 05:44:37;;;;;;;3.75;1.90;;;4.20;99.90;;;3.70;84.76;98796.34;5235244;28;20080;-83
2021/12/10 05:47:11;;;;;;;4.38;1.70;;;4.20;99.90;;;3.75;84.56;98794.78;5233543;28;20052;-83
2021/12/10 05:49:44;;;;;;;4.25;1.83;;;4.10;99.90;;;3.74;84.26;98780.16;5232694;28;20499;-83
2021/12/10 05:52:16;;;;;;;3.95;1.58;;;4.20;99.90;;;3.72;84.37;98768.94;5232986;28;20071;-83
2021/12/10 05:54:50;;;;;;;9.05;2.05;;;4.20;99.90;;;3.72;84.21;98766.34;5233328;28;20075;-83
2021/12/10 05:57:24;;;;;;;4.43;1.52;;;4.20;99.90;;;3.66;84.29;98750.72;5233965;28;20044;-83
2021/12/10 05:59:56;;;;;;;2.97;1.90;;;4.10;99.90;;;3.66;84.58;98749.00;5232011;28;20071;-82
2021/12/10 06:02:29;;;;;;;3.40;1.67;;;4.20;99.90;;;3.60;84.52;98748.81;5232784;28;20140;-82
2021/12/10 06:05:01;;;;;;;8.25;3.15;;;4.10;99.90;;;3.56;84.69;98759.84;5232562;28;20049;-82
2021/12/10 06:07:33;;;;;;;8.18;1.95;;;4.10;99.90;;;3.68;84.48;98756.78;5232690;28;20068;-83
2021/12/10 06:10:09;;;;;;;4.70;1.98;;;4.10;99.90;;;3.58;84.73;98754.75;5232555;28;20467;-83
2021/12/10 06:12:43;;;;;;;;;;;4.10;99.90;;;3.61;84.93;98753.16;5232862;28;20053;-83
2021/12/10 06:15:18;;;;;;;5.80;1.88;;;4.10;99.90;;;3.54;84.88;98731.47;5232417;28;19932;-83
2021/12/10 06:17:51;;;;;;;5.78;2.55;;;4.10;99.90;;;3.56;84.98;98738.38;5233575;28;20057;-82
2021/12/10 06:20:29;;;;;;;4.85;1.98;;;4.10;99.90;;;3.47;85.09;98721.84;5232481;28;20060;-81
2021/12/10 06:23:01;;;;;;;7.28;1.75;;;4.10;99.90;;;3.59;85.07;98743.63;5232794;28;20167;-82
2021/12/10 06:25:34;;;;;;;5.15;1.65;;;4.10;99.90;;;3.62;84.72;98729.13;5233142;28;20136;-81
2021/12/10 06:28:09;;;;;;;4.32;1.70;;;4.10;99.90;;;3.56;85.04;98731.53;5232589;28;20139;-81
2021/12/10 06:30:45;;;;;;;2.70;1.20;;;4.00;99.90;;;3.60;84.80;98724.78;5232846;28;20052;-83
2021/12/10 06:33:21;;;;;;;4.78;1.55;;;4.10;99.90;;;3.58;85.12;98721.25;5233276;28;20515;-83
2021/12/10 06:35:54;;;;;;;5.75;1.67;;;4.10;99.90;;;3.52;84.65;98709.06;5232888;28;20131;-83
2021/12/10 06:38:26;;;;;;;3.90;1.67;;;4.10;99.90;;;3.55;84.76;98709.16;5232729;28;20419;-83
2021/12/10 06:40:59;;;;;;;4.45;1.45;;;4.00;99.90;;;3.48;84.61;98715.84;5232901;28;20132;-82
2021/12/10 06:43:33;;;;;;;5.88;2.03;;;4.00;99.90;;;3.55;84.83;98719.47;5232062;28;20106;-82
2021/12/10 06:46:06;;;;;;;7.75;1.88;;;4.00;99.90;;;3.51;84.88;98723.66;5232314;28;20098;-82
2021/12/10 06:48:40;;;;;;;7.68;1.75;;;4.00;99.90;;;3.48;84.21;98695.25;5233307;28;20106;-82
2021/12/10 06:51:20;;;;;;;5.50;1.50;;;4.00;99.90;;;3.49;84.49;98703.84;5232594;28;20052;-82
2021/12/10 06:53:53;;;;;;;7.60;2.47;;;4.00;99.90;;;3.50;84.56;98696.16;5232117;28;20051;-82
2021/12/10 06:56:28;;;;;;;5.65;1.48;;;4.00;99.90;;;3.42;84.59;98681.31;5232900;28;20075;-82
2021/12/10 06:59:02;;;;;;;4.63;1.67;;;4.00;99.90;;;3.52;84.38;98698.75;5232888;28;20480;-82
2021/12/10 07:01:38;;;;;;;5.28;1.70;;;4.00;99.90;;;3.39;84.37;98700.13;5241331;28;20109;-81
2021/12/10 07:04:14;;;;;;;6.90;1.70;;;4.00;99.90;;;3.51;84.18;98703.03;5240743;28;20041;-79
2021/12/10 07:06:49;;;;;;;4.63;1.58;;;4.00;99.90;;;3.51;83.50;98697.00;5238023;28;20088;-81
2021/12/10 07:09:27;;;;;;;3.28;1.50;;;4.00;99.90;;;3.47;84.29;98696.06;5231762;28;20056;-81
2021/12/10 07:11:59;;;;;;;6.18;2.00;;;4.00;99.90;;;3.46;83.84;98688.31;5231325;28;20103;-81
2021/12/10 07:14:33;;;;;;;2.95;1.17;;;4.00;99.90;;;3.53;83.88;98696.25;5231016;28;20141;-81
2021/12/10 07:17:05;;;;;;;4.70;1.65;;;4.00;99.90;;;3.55;83.84;98698.88;5231335;28;20547;-82
2021/12/10 07:19:37;;;;;;;8.15;1.60;;;4.00;99.90;;;3.56;83.51;98704.88;5230627;28;20153;-81
2021/12/10 07:22:09;;;;;;;4.60;1.50;;;4.00;99.90;;;3.49;83.56;98698.69;5231496;28;20422;-82
2021/12/10 07:24:41;;;;;;;4.63;1.48;;;4.00;99.90;;;3.49;83.93;98694.41;5232450;28;20551;-81
2021/12/10 07:27:14;;;;;;;2.10;1.17;;;4.00;99.90;;;3.51;83.70;98695.31;5233628;28;20056;-81
2021/12/10 07:29:48;;;;;;;9.60;1.70;;;4.00;99.90;;;3.58;83.52;98705.78;5234787;28;20080;-83
2021/12/10 07:32:20;;;;;;;2.05;1.08;;;4.00;99.90;;;3.60;83.35;98687.00;5231007;28;20044;-81
2021/12/10 07:34:53;;;;;;;4.65;1.50;;;4.10;99.90;;;3.63;82.95;98697.38;5230591;28;20527;-80
2021/12/10 07:37:25;;;;;;;6.72;1.40;;;4.10;99.90;;;3.61;82.95;98677.56;5230205;28;20049;-80
2021/12/10 07:39:57;;;;;;;8.13;1.95;;;4.10;99.90;;;3.68;83.41;98689.78;5230531;28;20232;-81
2021/12/10 07:42:29;;;;;;;3.80;1.50;;;4.10;99.90;;;3.58;83.57;98686.06;5229933;28;20053;-81
2021/12/10 07:45:04;;;;;;;2.13;1.17;;;4.10;99.90;;;3.68;83.85;98698.38;5230017;28;20057;-83
2021/12/10 07:47:37;;;;;;;7.80;2.08;;;4.10;99.90;;;3.68;83.52;98689.78;5230001;28;20140;-81
2021/12/10 07:50:15;;;;;;;5.60;1.52;;;4.20;99.90;;;3.72;83.48;98714.81;5230294;28;20049;-81
2021/12/10 07:52:48;;;;;;;6.32;1.80;;;4.10;99.90;;;3.83;83.00;98692.78;5230432;28;20059;-80
2021/12/10 07:55:20;;;;;;;7.68;1.40;;;4.20;99.90;;;3.78;83.45;98684.94;5229968;28;20045;-81
2021/12/10 07:57:53;;;;;;;7.47;2.45;;;4.20;99.90;;;3.76;82.70;98676.28;5230949;28;20071;-81
2021/12/10 08:00:32;;;;;;;4.25;1.77;;;4.20;99.90;;;3.79;82.84;98673.81;5230918;28;20411;-83
2021/12/10 08:03:04;;;;;;;6.13;1.80;;;4.20;99.90;;;3.84;82.68;98670.47;5230081;28;20079;-80
2021/12/10 08:05:38;;;;;;;9.10;2.60;;;4.20;99.90;;;3.84;82.39;98679.06;5231023;28;20063;-82
2021/12/10 08:08:11;;;;;;;7.43;2.50;;;4.30;99.90;;;3.81;82.59;98677.28;5230786;28;20441;-81
2021/12/10 08:10:47;;;;;;;5.28;2.13;;;4.30;99.90;;;3.79;82.40;98689.28;5230355;28;20041;-81
2021/12/10 08:13:22;;;;;;;11.40;2.25;;;4.20;99.90;;;3.87;82.39;98683.44;5231099;28;20072;-82
2021/12/10 08:15:56;;;;;;;6.82;2.50;;;4.30;99.90;;;4.00;82.02;98688.97;5229796;28;20063;-82
2021/12/10 08:18:28;;;;;;;5.97;2.53;;;4.40;99.90;;;3.90;81.89;98681.81;5233790;28;20052;-82
2021/12/10 08:21:01;;;;;;;6.95;2.05;;;4.40;99.90;;;4.05;81.23;98682.25;5233484;28;20047;-82
2021/12/10 08:23:33;;;;;;;5.95;2.13;;;4.40;99.90;;;4.04;81.23;98689.91;5234239;28;20060;-82
2021/12/10 08:26:07;;;;;;;7.15;2.58;;;4.40;99.90;;;4.07;80.91;98683.16;5233927;28;20044;-82
2021/12/10 08:28:41;;;;;;;6.15;2.72;;;4.40;99.90;;;4.18;80.43;98692.91;5232988;28;20057;-81
2021/12/10 08:31:16;;;;;;;5.45;2.50;;;4.50;99.90;;;4.08;80.50;98677.16;5232401;28;20045;-81
2021/12/10 08:33:49;;;;;;;7.45;2.60;;;4.50;99.90;;;4.12;80.70;98692.72;5232452;28;20505;-82
2021/12/10 08:36:24;;;;;;;8.98;2.33;;;4.50;99.90;;;4.11;80.62;98686.69;5232608;28;20045;-82
2021/12/10 08:38:57;;;;;;;4.28;2.40;;;4.50;99.90;;;4.13;80.75;98679.88;5232902;28;20145;-82
2021/12/10 08:41:33;;;;;;;4.30;2.15;;;4.50;99.90;;;4.20;79.78;98686.06;5235346;28;20041;-82
2021/12/10 08:44:08;;;;;;;5.93;2.85;;;4.50;99.90;;;4.14;79.50;98685.91;5236098;28;20076;-82
2021/12/10 08:46:45;;;;;;;7.07;2.75;;;4.50;99.90;;;4.12;79.62;98685.00;5235564;28;20056;-83
2021/12/10 08:49:19;;;;;;;8.63;2.95;;;4.60;99.90;;;4.04;80.18;98687.34;5236271;28;20060;-83
2021/12/10 08:51:57;;;;;;;9.75;2.60;;;4.50;99.90;;;4.14;79.20;98676.47;5238527;28;20526;-82
2021/12/10 08:54:32;;;;;;;11.20;3.42;;;4.60;99.90;;;3.99;79.60;98669.19;5237333;28;20053;-84
2021/12/10 08:57:06;;;;;;;9.07;3.15;;;4.50;99.90;;;4.19;79.25;98686.91;5237571;28;20049;-86
2021/12/10 08:59:40;;;;;;;10.90;3.17;;;4.50;99.90;;;4.13;79.02;98676.41;5240513;28;20068;-86
2021/12/10 09:02:17;;;;;;;7.47;3.05;;;4.50;99.90;;;4.08;78.82;98668.56;5237808;28;20103;-84
2021/12/10 09:04:54;;;;;;;7.03;2.90;;;4.50;99.90;;;4.19;80.42;98664.56;5237868;28;20056;-82
2021/12/10 09:07:26;;;;;;;7.95;2.97;;;4.50;99.90;;;4.19;78.07;98658.53;5237697;28;20049;-85
2021/12/10 09:09:58;;;;;;;6.00;2.80;;;4.60;99.90;;;4.13;77.84;98661.81;5235290;28;20060;-85
2021/12/10 09:12:31;;;;;;;6.18;2.65;;;4.60;99.90;;;4.25;78.59;98669.00;5234425;28;20099;-80
2021/12/10 09:15:05;;;;;;;8.52;2.53;;;4.60;99.90;;;4.61;79.55;98666.47;5235334;28;20049;-84
2021/12/10 09:17:41;;;;;;;6.60;3.17;;;4.90;99.90;;;4.66;76.95;98669.16;5239049;28;20450;-84
2021/12/10 09:20:20;;;;;;;5.90;2.78;;;5.00;99.90;;;4.55;76.77;98654.28;5239811;28;20049;-83
2021/12/10 09:22:53;;;;;;;8.00;2.53;;;5.00;99.90;;;4.55;76.44;98669.75;5241259;28;20103;-83
2021/12/10 09:25:26;;;;;;;5.75;3.20;;;4.90;99.90;;;4.47;76.51;98666.13;5241889;28;20112;-85
2021/12/10 09:27:58;;;;;;;6.68;2.70;;;4.80;99.90;;;4.42;76.93;98667.72;5241030;28;20061;-84
2021/12/10 09:30:32;;;;;;;5.28;2.55;;;4.80;99.90;;;4.51;76.90;98665.38;5241986;28;20057;-83
2021/12/10 09:33:06;;;;;;;9.38;2.35;;;4.80;99.90;;;4.57;80.06;98660.38;5239199;28;20055;-80
2021/12/10 09:35:39;;;;;;;5.10;2.28;;;4.80;99.90;;;5.02;78.30;98654.56;5239102;28;20061;-82
2021/12/10 09:38:11;;;;;;;8.15;2.80;;;5.30;99.90;;;4.78;75.02;98648.81;5241671;28;20056;-84
2021/12/10 09:40:49;;;;;;;8.40;2.67;;;5.30;99.90;;;4.64;74.98;98661.41;5239778;28;20041;-85
2021/12/10 09:43:23;;;;;;;8.70;2.15;;;5.10;99.90;;;4.54;75.61;98657.72;5238326;28;20113;-86
2021/12/10 09:45:57;;;;;;;8.88;2.35;;;5.00;99.90;;;4.51;75.86;98660.22;5237641;28;20049;-84
2021/12/10 09:48:31;;;;;;;6.20;2.30;;;4.90;99.90;;;4.47;75.54;98658.38;5221431;28;20079;-84
2021/12/10 09:51:11;;;;;;;7.35;2.20;;;4.90;99.90;;;4.50;76.08;98660.16;5237622;28;20143;-85
2021/12/10 09:53:47;;;;;;;4.88;2.08;;;4.80;99.90;;;4.49;75.65;98659.28;5237718;28;20112;-91
2021/12/10 09:56:23;;;;;;;4.55;2.22;;;4.80;99.90;;;4.36;74.89;98641.75;5239451;28;20045;-84
2021/12/10 09:59:18;;;;;;;;;;;4.80;99.90;;;4.50;75.23;98655.91;5241761;28;20071;-85
2021/12/10 10:01:55;;;;;;;6.07;2.38;;;4.80;99.90;;;4.43;75.15;98646.25;5242471;28;19985;-84
2021/12/10 10:04:33;;;;;;;5.72;2.10;;;4.80;99.90;;;4.45;75.27;98636.84;5243173;28;20053;-85
2021/12/10 10:07:12;;;;;;;7.65;2.60;;;4.80;99.90;;;4.48;74.82;98647.22;5243089;28;20057;-85
2021/12/10 10:09:48;;;;;;;9.35;2.22;;;4.90;99.90;;;4.44;75.19;98640.28;5245933;28;20057;-86
2021/12/10 10:12:24;;;;;;;6.10;2.28;;;4.90;99.90;;;4.55;75.28;98625.91;5246127;28;20072;-87
2021/12/10 10:14:58;;;;;;;5.63;2.33;;;4.90;99.90;;;4.69;74.37;98648.59;5239699;28;20171;-85
2021/12/10 10:17:30;;;;;;;6.13;2.35;;;4.90;99.90;;;4.69;74.03;98646.00;5240315;28;20462;-84
2021/12/10 10:20:09;;;;;;;8.73;2.13;;;5.00;99.90;;;4.78;74.00;98641.06;5240335;28;20053;-84
2021/12/10 10:22:44;;;;;;;5.30;2.28;;;5.00;99.90;;;4.77;73.59;98616.13;5242497;28;20063;-83
2021/12/10 10:25:21;;;;;;;8.13;2.50;;;5.00;99.90;;;4.79;73.26;98628.19;5242411;28;20056;-85
2021/12/10 10:27:56;;;;;;;4.97;2.08;;;5.00;99.90;;;4.78;72.91;98615.28;5245861;28;20048;-86
2021/12/10 10:30:32;;;;;;;5.75;2.35;;;5.00;99.90;;;4.73;72.87;98616.88;5238973;28;20130;-84
2021/12/10 10:33:11;;;;;;;6.22;1.60;;;5.00;99.90;;;4.76;72.79;98609.19;5240327;28;20072;-84
2021/12/10 10:35:49;;;;;;;4.22;1.75;;;5.10;99.90;;;4.84;73.26;98618.00;5238284;28;20048;-84
2021/12/10 10:38:23;;;;;;;4.07;1.67;;;5.10;99.90;;;4.78;73.32;98600.66;5241326;28;20061;-85
2021/12/10 10:40:59;;;;;;;5.18;1.77;;;5.10;99.90;;;4.75;72.50;98594.53;5238758;28;20051;-82
2021/12/10 10:43:36;;;;;;;3.97;1.60;;;5.20;99.90;;;4.80;72.11;98585.19;5238606;28;20423;-87
2021/12/10 10:46:08;;;;;;;3.22;1.73;;;5.10;99.90;;;4.87;74.06;98585.34;5236980;28;20135;-86
2021/12/10 10:48:42;;;;;;;6.60;2.00;;;5.20;99.90;;;4.90;73.01;98598.34;5235515;28;20052;-86
2021/12/10 10:51:19;;;;;;;5.28;1.75;;;5.20;99.90;;;5.01;72.58;98606.31;5234757;28;20059;-87
2021/12/10 10:53:54;;;;;;;5.55;1.42;;;5.30;99.90;;;4.99;72.02;98589.94;5234890;28;20056;-87
2021/12/10 10:56:34;;;;;;;7.22;1.70;;;5.30;99.90;;;5.01;72.16;98577.91;5234223;28;20053;-86
2021/12/10 10:59:15;;;;;;;3.03;1.27;;;5.30;99.90;;;4.95;71.55;98567.44;5236636;28;20064;-86
2021/12/10 11:01:58;;;;;;;4.13;1.67;;;5.40;99.90;;;5.47;75.30;98581.44;5236194;28;20044;-87
2021/12/10 11:04:35;;;;;;;8.18;1.80;;;5.60;99.90;;;5.41;70.44;98583.91;5235296;28;20056;-85
2021/12/10 11:07:14;;;;;;;4.20;1.60;;;5.70;99.90;;;5.27;70.16;98581.03;5236978;28;20061;-86
2021/12/10 11:09:53;;;;;;;3.80;1.50;;;5.60;99.90;;;5.15;69.87;98593.69;5238627;28;20072;-85
2021/12/10 11:12:32;;;;;;;5.55;1.77;;;5.50;99.90;;;5.22;69.79;98597.31;5239091;28;20049;-86